createdAt,value
2019-04-30T00:01:07.467Z,0.30
2019-04-30T00:08:21.605Z,0.30
2019-04-30T00:11:02.624Z,0.20
2019-04-30T00:23:27.196Z,0.23
2019-04-30T00:26:10.487Z,0.30
2019-04-30T00:29:05.013Z,0.23
2019-04-30T00:40:26.772Z,0.30
2019-04-30T00:47:26.075Z,0.23
2019-04-30T00:53:19.721Z,0.43
2019-04-30T00:56:07.994Z,2.23
2019-04-30T00:58:50.224Z,0.53
2019-04-30T01:01:56.369Z,0.20
2019-04-30T01:04:50.127Z,0.30
2019-04-30T01:10:53.002Z,0.30
2019-04-30T01:21:46.990Z,0.30
2019-04-30T01:24:49.690Z,0.23
2019-04-30T01:28:16.319Z,0.37
2019-04-30T01:42:48.672Z,0.20
2019-04-30T01:49:49.623Z,0.40
2019-04-30T01:56:30.945Z,0.30
2019-04-30T02:00:00.665Z,0.40
2019-04-30T02:03:05.522Z,0.30
2019-04-30T02:05:49.901Z,0.33
2019-04-30T02:08:41.298Z,0.23
2019-04-30T02:23:09.659Z,0.40
2019-04-30T02:26:14.016Z,0.60
2019-04-30T02:33:30.937Z,0.43
2019-04-30T02:36:23.839Z,0.30
2019-04-30T02:42:26.234Z,0.30
2019-04-30T02:55:45.857Z,0.37
2019-04-30T03:01:50.221Z,0.30
2019-04-30T03:04:52.732Z,0.30
2019-04-30T03:07:36.583Z,0.30
2019-04-30T03:10:15.047Z,0.20
2019-04-30T03:12:55.732Z,0.43
2019-04-30T03:15:49.342Z,0.30
2019-04-30T03:18:33.756Z,0.30
2019-04-30T03:21:21.371Z,0.63
2019-04-30T03:24:00.690Z,0.73
2019-04-30T03:26:40.537Z,0.50
2019-04-30T03:29:25.417Z,0.50
2019-04-30T03:32:02.876Z,0.30
2019-04-30T03:35:05.297Z,0.20
2019-04-30T03:38:12.385Z,0.27
2019-04-30T03:40:59.958Z,0.30
2019-04-30T03:43:35.138Z,0.20
2019-04-30T03:46:23.659Z,0.30
2019-04-30T03:49:13.755Z,0.27
2019-04-30T03:51:52.145Z,0.43
2019-04-30T03:54:29.966Z,1.43
2019-04-30T03:57:01.226Z,0.30
2019-04-30T03:59:39.616Z,0.50
2019-04-30T04:02:30.222Z,0.20
2019-04-30T04:05:15.742Z,0.20
2019-04-30T04:08:10.035Z,0.20
2019-04-30T04:11:03.519Z,0.20
2019-04-30T04:13:33.093Z,0.30
2019-04-30T04:16:14.251Z,0.23
2019-04-30T04:18:51.054Z,0.50
2019-04-30T04:21:29.877Z,0.30
2019-04-30T04:24:02.010Z,0.80
2019-04-30T04:26:36.823Z,0.30
2019-04-30T04:29:12.608Z,0.30
2019-04-30T04:32:00.814Z,0.20
2019-04-30T04:34:34.565Z,0.20
2019-04-30T04:37:06.228Z,0.20
2019-04-30T04:39:42.052Z,0.47
2019-04-30T04:42:10.258Z,0.30
2019-04-30T04:44:54.486Z,0.37
2019-04-30T04:47:44.396Z,0.20
2019-04-30T04:50:25.335Z,0.30
2019-04-30T04:52:53.932Z,0.30
2019-04-30T04:55:49.912Z,0.17
2019-04-30T04:58:30.679Z,0.20
2019-04-30T05:01:12.077Z,0.40
2019-04-30T05:04:20.014Z,0.37
2019-04-30T05:07:12.453Z,0.30
2019-04-30T05:10:33.955Z,0.30
2019-04-30T05:13:11.391Z,0.30
2019-04-30T05:16:19.886Z,0.20
2019-04-30T05:19:38.481Z,0.63
2019-04-30T05:22:12.481Z,0.97
2019-04-30T05:24:45.928Z,2.13
2019-04-30T05:27:30.319Z,0.30
2019-04-30T05:29:57.182Z,0.53
2019-04-30T05:32:39.084Z,0.77
2019-04-30T05:35:15.602Z,0.40
2019-04-30T05:42:29.439Z,0.30
2019-04-30T05:44:15.958Z,0.20
2019-04-30T05:46:54.578Z,0.30
2019-04-30T05:49:26.379Z,0.27
2019-04-30T05:52:03.839Z,0.40
2019-04-30T05:54:32.085Z,0.30
2019-04-30T05:57:09.547Z,0.30
2019-04-30T06:00:04.159Z,0.20
2019-04-30T06:02:56.940Z,0.30
2019-04-30T06:05:40.812Z,0.30
2019-04-30T06:08:45.775Z,0.33
2019-04-30T06:11:20.024Z,0.60
2019-04-30T06:14:21.888Z,2.00
2019-04-30T06:20:21.658Z,0.30
2019-04-30T06:22:53.773Z,0.20
2019-04-30T06:25:54.862Z,0.20
2019-04-30T06:28:12.549Z,0.20
2019-04-30T06:30:49.287Z,0.40
2019-04-30T06:33:19.900Z,1.37
2019-04-30T06:36:51.106Z,0.50
2019-04-30T06:39:34.270Z,0.30
2019-04-30T06:42:30.588Z,1.17
2019-04-30T06:45:09.062Z,0.30
2019-04-30T06:48:29.488Z,0.20
2019-04-30T06:51:18.864Z,0.57
2019-04-30T06:53:51.412Z,0.97
2019-04-30T06:56:19.503Z,0.63
2019-04-30T06:58:49.278Z,0.20
2019-04-30T07:01:16.897Z,0.47
2019-04-30T07:03:44.700Z,0.20
2019-04-30T07:06:12.967Z,0.97
2019-04-30T07:09:08.871Z,0.20
2019-04-30T07:11:51.472Z,0.20
2019-04-30T07:14:19.597Z,0.20
2019-04-30T07:16:49.401Z,0.20
2019-04-30T07:19:30.000Z,0.80
2019-04-30T07:21:46.924Z,0.20
2019-04-30T07:24:15.292Z,0.30
2019-04-30T07:26:43.027Z,0.30
2019-04-30T07:29:11.714Z,0.30
2019-04-30T07:31:39.600Z,0.40
2019-04-30T07:34:09.154Z,1.33
2019-04-30T07:39:09.834Z,0.30
2019-04-30T07:41:36.902Z,0.30
2019-04-30T07:44:06.573Z,0.30
2019-04-30T07:46:41.160Z,0.30
2019-04-30T07:49:06.712Z,0.60
2019-04-30T07:51:37.933Z,0.53
2019-04-30T07:54:04.010Z,0.90
2019-04-30T07:56:35.021Z,0.80
2019-04-30T07:59:02.877Z,0.27
2019-04-30T08:01:31.028Z,0.20
2019-04-30T08:04:21.334Z,0.20
2019-04-30T08:06:52.102Z,0.50
2019-04-30T08:09:22.225Z,0.40
2019-04-30T08:09:34.987Z,0.20
2019-04-30T08:11:49.766Z,0.60
2019-04-30T08:14:18.469Z,0.30
2019-04-30T08:16:48.502Z,0.23
2019-04-30T08:19:21.167Z,0.20
2019-04-30T08:21:48.989Z,0.20
2019-04-30T08:24:16.594Z,0.37
2019-04-30T08:26:46.782Z,0.97
2019-04-30T08:29:15.217Z,0.40
2019-04-30T08:31:54.483Z,0.20
2019-04-30T08:34:39.382Z,0.30
2019-04-30T08:37:33.966Z,0.57
2019-04-30T08:39:44.001Z,0.40
2019-04-30T08:42:13.905Z,0.30
2019-04-30T08:44:45.080Z,1.00
2019-04-30T08:47:12.969Z,0.70
2019-04-30T08:49:41.804Z,0.47
2019-04-30T08:52:10.988Z,0.20
2019-04-30T08:54:39.363Z,0.77
2019-04-30T08:57:08.581Z,0.30
2019-04-30T08:59:36.366Z,0.30
2019-04-30T09:02:15.281Z,0.40
2019-04-30T09:04:33.937Z,0.30
2019-04-30T09:07:01.580Z,0.37
2019-04-30T09:09:29.725Z,0.20
2019-04-30T09:11:59.207Z,0.60
2019-04-30T09:14:26.990Z,0.20
2019-04-30T09:16:54.550Z,0.40
2019-04-30T09:19:22.304Z,0.30
2019-04-30T09:21:50.018Z,0.30
2019-04-30T09:24:19.114Z,0.60
2019-04-30T09:26:49.147Z,0.30
2019-04-30T09:29:16.570Z,0.40
2019-04-30T09:31:44.394Z,0.30
2019-04-30T09:34:17.018Z,0.67
2019-04-30T09:36:44.684Z,0.40
2019-04-30T09:39:19.507Z,0.30
2019-04-30T09:41:49.696Z,1.07
2019-04-30T09:44:19.374Z,0.43
2019-04-30T09:46:48.792Z,0.60
2019-04-30T09:49:16.441Z,0.40
2019-04-30T09:51:44.178Z,0.50
2019-04-30T09:54:12.833Z,0.57
2019-04-30T09:56:41.012Z,0.87
2019-04-30T09:59:09.117Z,0.57
2019-04-30T10:01:37.175Z,1.50
2019-04-30T10:04:05.287Z,1.33
2019-04-30T10:06:39.608Z,0.70
2019-04-30T10:09:04.189Z,0.80
2019-04-30T10:11:56.593Z,0.73
2019-04-30T10:14:24.312Z,0.83
2019-04-30T10:16:59.523Z,0.30
2019-04-30T10:19:28.846Z,0.30
2019-04-30T10:21:58.868Z,0.50
2019-04-30T10:24:26.219Z,0.43
2019-04-30T10:26:54.045Z,0.97
2019-04-30T10:29:21.687Z,0.73
2019-04-30T10:31:49.407Z,1.37
2019-04-30T12:25:04.913Z,1.97
2019-04-30T12:27:34.726Z,0.70
2019-04-30T12:30:05.832Z,0.87
2019-04-30T12:32:49.335Z,1.67
2019-04-30T12:35:42.191Z,1.80
2019-04-30T12:38:18.993Z,1.00
2019-04-30T12:40:48.738Z,0.93
2019-04-30T12:43:17.434Z,1.10
2019-04-30T12:45:46.533Z,1.93
2019-04-30T12:48:23.134Z,1.67
2019-04-30T14:52:12.368Z,2.77
2019-04-30T14:54:58.848Z,1.83
2019-04-30T14:57:51.021Z,2.30
2019-04-30T15:00:49.884Z,1.80
2019-04-30T15:03:33.007Z,1.67
2019-04-30T19:24:56.208Z,5.63
2019-04-30T19:27:36.349Z,9.67
2019-04-30T19:30:10.335Z,7.20
2019-04-30T19:32:39.013Z,5.57
2019-04-30T19:35:09.038Z,8.50
2019-04-30T19:37:38.626Z,8.33
2019-04-30T19:40:08.921Z,9.27
2019-04-30T19:42:36.599Z,7.27
2019-04-30T19:45:10.144Z,9.93
2019-04-30T19:47:38.972Z,6.97
2019-04-30T19:50:07.001Z,5.90
2019-04-30T19:52:43.785Z,7.00
2019-04-30T19:55:11.474Z,7.00
2019-04-30T19:57:39.879Z,6.90
2019-04-30T20:00:09.287Z,6.60
2019-04-30T20:02:39.104Z,7.03
2019-04-30T20:05:09.035Z,7.20
2019-04-30T20:07:38.196Z,8.27
2019-04-30T20:10:09.796Z,8.63
2019-04-30T20:12:51.908Z,9.47
2019-04-30T20:15:46.759Z,7.60
2019-04-30T20:18:15.091Z,10.87
2019-04-30T20:20:51.635Z,9.70
2019-04-30T20:23:30.105Z,9.93
2019-04-30T20:25:57.768Z,8.77
2019-04-30T20:28:38.264Z,8.70
2019-04-30T20:30:59.500Z,9.43
2019-04-30T20:33:29.006Z,8.07
2019-04-30T20:35:58.992Z,9.10
2019-04-30T20:39:59.374Z,7.70
2019-04-30T20:42:02.279Z,9.60
2019-04-30T20:44:41.655Z,7.10
2019-04-30T20:47:44.620Z,5.70
2019-04-30T20:50:13.481Z,7.33
2019-04-30T20:52:41.707Z,6.10
2019-04-30T20:55:10.017Z,6.47
2019-04-30T20:57:44.879Z,5.87
2019-04-30T21:00:13.565Z,7.33
2019-04-30T21:02:53.297Z,5.47
2019-04-30T21:05:21.853Z,7.37
2019-04-30T21:13:16.325Z,7.60
2019-04-30T21:15:47.164Z,7.03
2019-04-30T21:18:48.892Z,6.43
2019-04-30T21:21:31.276Z,8.00
2019-04-30T21:24:11.363Z,5.73
2019-04-30T21:30:15.942Z,6.87
2019-04-30T21:33:11.002Z,7.30
2019-04-30T21:35:55.172Z,9.40
2019-04-30T21:38:24.516Z,6.43
2019-04-30T21:40:53.589Z,6.87
2019-04-30T21:43:21.648Z,8.83
2019-04-30T22:05:26.999Z,4.37
2019-04-30T22:16:25.754Z,4.10
2019-04-30T22:22:15.696Z,3.57
2019-04-30T22:28:35.267Z,2.60
2019-04-30T22:31:03.493Z,3.43
2019-04-30T22:33:49.061Z,5.50
2019-04-30T22:40:20.458Z,3.50
2019-04-30T22:42:49.541Z,5.13
2019-04-30T22:52:40.703Z,3.30
2019-04-30T22:55:16.708Z,2.47
2019-04-30T22:57:44.600Z,4.10
2019-04-30T23:00:23.633Z,3.07
2019-04-30T23:02:57.689Z,3.80
2019-04-30T23:05:45.534Z,2.77
2019-04-30T23:08:16.468Z,2.77
2019-04-30T23:10:47.737Z,3.03
2019-04-30T23:13:20.678Z,2.57
2019-04-30T23:15:52.898Z,3.43
2019-04-30T23:18:20.956Z,4.13
2019-04-30T23:20:49.773Z,3.90
2019-04-30T23:23:21.499Z,3.67
2019-04-30T23:26:02.817Z,3.67
